Date,TemperatureHighF,TemperatureAvgF,TemperatureLowF,DewpointHighF,DewpointAvgF,DewpointLowF,HumidityHigh,HumidityAvg,HumidityLow,PressureMaxIn,PressureMinIn,WindSpeedMaxMPH,WindSpeedAvgMPH,GustSpeedMaxMPH,PrecipitationSumIn
2013-1-1,28,27,26,27,26,25,96,96,95,30.23,30.06,7,2,12,0.00
2013-1-2,33,29,27,32,28,26,97,96,93,30.41,30.08,5,0,9,0.00
2013-1-3,42,34,22,38,31,21,97,88,75,30.51,30.30,11,2,17,0.00
2013-1-4,50,45,41,41,38,35,88,79,59,30.30,30.03,17,6,28,0.00
2013-1-5,50,43,31,43,36,25,95,76,55,30.14,29.91,15,5,25,0.00
2013-1-6,37,35,33,34,28,25,95,77,65,30.17,29.97,9,2,16,0.04
2013-1-7,37,31,26,33,25,18,94,77,56,30.40,30.00,6,1,12,0.00
2013-1-8,30,24,14,25,20,12,93,82,64,30.40,30.21,8,1,10,0.03
2013-1-9,29,27,24,27,25,23,95,93,90,30.23,30.12,6,1,9,0.02
2013-1-10,32,28,24,32,26,23,96,95,95,30.12,29.76,6,1,9,0.02
2013-1-11,38,33,28,36,30,23,97,88,77,29.98,29.74,11,4,18,0.00
2013-1-12,33,28,24,26,23,20,92,81,63,30.10,29.98,8,2,13,0.00
2013-1-13,30,28,26,27,26,24,95,91,86,30.13,30.08,10,2,15,0.01
2013-1-14,35,31,27,34,29,24,95,91,85,30.09,29.88,14,4,26,0.44
2013-1-15,38,35,33,37,34,32,97,96,94,29.91,29.70,7,1,14,0.12
2013-1-16,37,35,33,37,34,31,98,96,93,29.70,29.55,5,1,9,0.21
2013-1-17,36,34,33,35,33,32,98,97,96,29.69,29.53,4,0,6,0.04
2013-1-18,34,33,29,33,31,28,97,95,88,29.66,29.50,5,1,8,0.29
2013-1-19,30,27,26,28,25,24,96,91,85,29.63,29.48,0,0,0,0.00
2013-1-20,35,31,28,34,30,25,97,96,91,29.62,29.51,7,1,13,0.00
2013-1-21,42,37,34,41,37,34,98,97,97,29.51,29.40,7,1,12,0.06
2013-1-22,36,32,29,36,31,28,98,95,90,29.64,29.42,8,2,12,0.03
2013-1-23,33,29,26,30,28,25,95,93,87,29.84,29.63,6,1,9,0.18
2013-1-24,34,30,25,33,29,23,97,94,88,29.83,29.72,10,2,16,0.00
2013-1-25,33,29,26,26,23,20,93,79,70,29.96,29.74,8,2,14,0.00
2013-1-26,33,28,20,24,22,17,88,80,68,30.04,29.93,4,1,6,0.00
2013-1-27,30,25,13,28,21,11,93,86,75,30.05,29.90,6,1,9,0.00
2013-1-28,33,30,28,31,28,26,94,92,88,30.13,29.90,6,1,10,0.05
2013-1-29,37,30,18,35,28,16,96,93,85,30.16,30.00,7,1,13,0.01
2013-1-30,42,39,35,42,38,34,98,97,96,30.00,29.80,5,1,9,0.08
2013-1-31,49,45,38,45,36,30,98,73,53,30.02,29.78,17,6,26,0.01
2013-2-1,51,45,39,37,35,31,79,68,52,29.85,29.49,16,5,25,0.00
2013-2-2,45,42,38,43,39,35,96,89,74,29.48,29.25,10,3,20,0.31
2013-2-3,39,35,32,36,32,25,94,87,73,29.94,29.43,10,4,18,0.11
2013-2-4,38,33,27,33,29,24,95,85,75,29.94,29.89,9,3,15,0.02
2013-2-5,42,38,34,37,34,32,94,87,78,29.93,29.60,10,3,15,0.00
2013-2-6,38,36,33,37,35,32,96,94,89,29.60,29.43,6,1,9,0.39
2013-2-7,35,33,29,34,32,26,97,94,87,29.74,29.40,8,2,15,0.33
2013-2-8,37,29,21,29,25,19,94,86,69,29.85,29.74,7,1,10,0.00
2013-2-9,34,26,18,29,24,16,95,90,74,29.94,29.85,5,1,7,0.02
2013-2-10,31,29,27,29,27,25,95,94,91,29.92,29.83,6,1,8,0.20
2013-2-11,33,27,24,28,25,22,95,92,76,29.95,29.88,9,2,14,0.00
2013-2-12,37,32,24,34,28,22,93,85,78,29.91,29.82,14,6,23,0.12
2013-2-13,43,38,35,38,34,33,93,87,76,30.03,29.87,10,1,16,0.02
2013-2-14,38,35,32,37,34,30,97,95,93,30.12,30.03,3,0,4,0.05
2013-2-15,44,38,34,39,36,33,98,93,84,30.10,30.03,4,0,5,0.00
2013-2-16,44,36,28,37,33,26,96,88,70,30.17,30.10,8,1,13,0.00
2013-2-17,36,34,28,32,31,26,96,91,85,30.20,30.16,4,0,7,0.00
2013-2-18,38,34,28,33,30,26,94,87,79,30.18,30.10,5,1,8,0.00
2013-2-19,41,34,30,32,30,28,95,86,61,30.10,29.85,10,3,15,0.03
2013-2-20,39,34,27,33,29,23,95,83,66,30.06,29.84,11,3,18,0.03
2013-2-21,38,30,21,28,23,17,94,77,44,30.08,29.95,7,1,9,0.00
2013-2-22,34,32,28,33,29,24,96,91,74,29.95,29.75,9,3,16,0.20
2013-2-23,42,37,34,40,36,32,97,95,92,29.83,29.69,15,6,25,0.33
2013-2-24,45,43,42,43,41,39,96,93,89,29.92,29.78,14,7,22,0.39
2013-2-25,49,46,42,46,43,40,95,90,82,30.13,29.92,10,3,16,0.00
2013-2-26,56,47,41,47,43,40,96,86,71,30.13,30.08,8,1,12,0.00
2013-2-27,50,44,40,42,40,38,94,85,70,30.30,30.13,6,1,9,0.00
2013-2-28,52,42,35,39,36,32,96,80,56,30.32,30.17,6,1,10,0.00
2013-3-1,40,36,30,38,33,28,97,89,82,30.17,30.00,11,3,16,0.00
2013-3-2,46,38,28,31,28,25,87,69,47,30.16,30.05,8,2,13,0.00
2013-3-3,47,36,25,31,27,23,94,71,45,30.13,30.00,11,3,21,0.00
2013-3-4,48,36,25,30,26,22,92,70,43,30.35,30.09,12,1,16,0.00
2013-3-5,52,40,26,29,25,21,89,59,31,30.36,30.14,11,3,17,0.00
2013-3-6,49,42,34,41,34,28,80,71,62,30.14,29.82,5,1,9,0.00
2013-3-7,54,49,44,48,44,40,92,83,75,29.82,29.67,8,2,14,0.00
2013-3-8,56,50,46,50,47,45,96,90,79,29.67,29.59,7,1,13,0.01
2013-3-9,56,50,47,50,48,45,97,92,80,29.59,29.55,6,1,10,0.02
2013-3-10,55,50,46,50,46,44,97,89,75,29.55,29.45,5,1,8,0.05
2013-3-11,58,46,36,48,40,34,97,81,51,29.55,29.45,10,2,20,0.06
2013-3-12,55,46,34,44,38,31,92,76,59,29.56,29.44,9,2,12,0.02
2013-3-13,50,46,43,47,44,40,96,91,84,29.46,29.40,5,1,8,0.10
2013-3-14,45,38,29,44,36,28,95,94,93,29.45,29.26,9,2,14,0.61
2013-3-15,31,28,25,28,23,18,95,81,61,29.90,29.26,12,2,22,0.18
2013-3-16,35,29,20,21,19,14,88,69,44,30.16,29.90,10,2,15,0.00
2013-3-17,36,28,18,24,19,15,93,71,42,30.18,30.02,14,4,20,0.00
2013-3-18,37,33,28,35,28,19,95,81,66,30.02,29.37,16,5,25,0.57
2013-3-19,49,41,33,40,36,30,97,82,55,29.69,29.29,15,5,25,0.05
2013-3-20,58,46,31,42,36,28,92,70,44,29.75,29.69,11,2,17,0.00
2013-3-21,50,43,36,43,40,32,95,91,74,29.76,29.71,14,4,26,0.46
2013-3-22,45,37,30,34,29,25,86,73,53,29.96,29.75,16,7,27,0.00
2013-3-23,35,30,26,27,25,18,92,79,64,30.11,29.95,8,1,13,0.00
2013-3-24,36,29,22,17,13,10,71,52,36,30.19,30.09,9,2,15,0.00
2013-3-25,37,31,28,28,18,11,92,61,43,30.09,29.72,10,3,14,0.20
2013-3-26,33,30,28,29,27,26,93,89,81,29.76,29.68,7,2,12,0.19
2013-3-27,34,31,28,30,28,26,94,91,85,29.94,29.76,5,1,8,0.06
2013-3-28,37,34,31,32,30,27,96,85,70,30.04,29.94,11,3,16,0.00
2013-3-29,37,35,33,36,33,30,95,93,87,29.99,29.73,11,2,17,0.46
2013-3-30,47,40,33,42,38,32,97,91,80,29.74,29.55,9,1,15,0.12
2013-3-31,49,42,33,48,41,29,97,95,85,29.61,29.36,14,4,23,0.38
2013-4-1,45,37,32,30,28,27,86,72,52,29.88,29.61,11,4,22,0.00
2013-4-2,44,39,32,39,32,27,94,79,61,29.88,29.63,9,2,15,0.35
2013-4-3,44,41,38,44,40,37,97,96,93,29.73,29.59,9,2,17,0.22
2013-4-4,43,39,36,38,36,35,97,90,80,29.87,29.71,7,2,10,0.00
2013-4-5,44,40,34,42,38,32,96,92,85,29.85,29.63,8,1,17,0.08
2013-4-6,49,43,39,42,39,35,97,86,71,29.99,29.70,9,2,14,0.00
2013-4-7,46,41,38,39,36,33,94,83,71,30.01,29.91,7,1,10,0.00
2013-4-8,53,44,37,36,31,26,81,60,41,29.93,29.80,9,2,12,0.00
2013-4-9,52,46,41,44,40,36,93,82,65,29.82,29.76,8,2,13,0.00
2013-4-10,57,48,41,48,43,37,96,85,61,29.89,29.75,10,2,17,0.07
2013-4-11,66,52,34,47,41,32,95,69,46,29.94,29.81,13,3,21,0.00
2013-4-12,65,56,48,53,48,44,93,74,53,29.83,29.71,17,5,25,0.06
2013-4-13,63,51,42,48,44,39,96,79,44,30.22,29.82,17,3,32,0.02
2013-4-14,64,51,36,45,38,32,96,64,32,30.34,30.22,10,2,18,0.00
2013-4-15,64,51,35,43,38,33,94,64,37,30.36,30.25,6,1,9,0.00
2013-4-16,68,54,35,41,36,32,91,57,28,30.30,30.20,10,1,14,0.00
2013-4-17,71,55,37,46,39,33,91,60,28,30.25,30.17,6,1,12,0.00
2013-4-18,75,60,40,48,41,37,93,57,26,30.19,30.04,10,1,13,0.00
2013-4-19,75,61,42,46,41,37,86,53,26,30.09,29.98,9,1,14,0.00
2013-4-20,76,60,43,54,47,39,96,66,31,30.09,30.01,11,1,16,0.01
2013-4-21,72,61,47,48,45,42,87,58,39,30.09,29.94,10,2,17,0.00
2013-4-22,73,61,46,49,43,38,79,54,34,29.98,29.90,10,2,15,0.00
2013-4-23,74,62,47,53,49,44,92,64,40,30.20,29.98,10,2,17,0.00
2013-4-24,76,63,48,52,47,42,88,59,31,30.31,30.20,11,2,20,0.00
2013-4-25,80,63,44,51,45,40,89,57,27,30.25,30.12,9,2,13,0.00
2013-4-26,82,67,46,53,46,42,91,53,25,30.13,29.74,12,2,20,0.00
2013-4-27,81,70,61,54,50,45,66,50,36,29.74,29.66,17,5,24,0.00
2013-4-28,78,67,58,57,54,49,86,63,41,29.97,29.70,14,4,22,0.02
2013-4-29,84,69,55,56,52,49,86,59,34,30.05,29.97,17,4,27,0.00
2013-4-30,86,70,54,60,54,50,90,60,33,30.08,29.95,9,1,14,0.00
2013-5-1,85,72,59,59,55,50,79,56,33,30.07,29.99,12,2,18,0.00
2013-5-2,81,70,58,62,58,52,87,66,49,30.03,29.82,12,3,20,0.04
2013-5-3,76,65,56,63,59,53,93,82,59,29.87,29.76,8,2,20,0.06
2013-5-4,70,60,51,56,53,49,94,77,59,30.05,29.85,9,2,15,0.00
2013-5-5,76,64,49,58,53,47,95,70,43,30.14,30.05,6,1,9,0.00
2013-5-6,75,65,60,61,56,49,91,72,51,30.13,30.01,10,2,17,0.11
2013-5-7,72,64,58,64,59,56,94,84,65,30.06,29.97,10,2,16,0.15
2013-5-8,76,65,56,62,57,53,96,75,46,30.04,29.94,6,1,13,0.01
2013-5-9,77,66,54,61,55,52,95,70,43,30.04,29.96,7,1,10,0.00
2013-5-10,79,66,51,57,51,48,93,62,35,29.99,29.82,11,2,21,0.00
2013-5-11,72,64,57,61,57,51,90,79,65,29.86,29.73,8,2,13,0.00
2013-5-12,66,59,54,56,53,48,93,80,65,29.79,29.70,13,4,20,0.00
2013-5-13,62,56,48,49,47,41,88,72,57,29.92,29.78,11,4,21,0.01
2013-5-14,64,54,44,50,46,41,92,75,58,29.94,29.89,7,1,12,0.00
2013-5-15,71,60,47,55,50,44,95,72,52,29.89,29.77,8,2,14,0.00
2013-5-16,74,64,50,58,54,47,93,70,52,29.80,29.66,12,4,17,0.00
2013-5-17,69,64,56,61,58,53,92,81,70,29.74,29.65,19,3,37,0.42
2013-5-18,74,63,54,58,54,48,96,74,41,29.92,29.65,10,3,17,0.01
2013-5-19,80,67,50,59,53,48,94,65,40,29.93,29.73,11,3,21,0.15
2013-5-20,70,62,53,56,52,45,93,73,43,29.92,29.76,10,2,16,0.06
2013-5-21,72,61,51,54,50,46,92,68,44,29.92,29.80,12,2,22,0.00
2013-5-22,69,60,52,55,51,47,87,74,52,29.80,29.64,9,2,20,0.00
2013-5-23,62,56,50,51,48,44,93,76,63,29.69,29.55,10,2,15,0.00
2013-5-24,66,57,50,52,47,44,87,71,52,29.72,29.59,7,1,12,0.00
2013-5-25,65,56,49,51,47,45,94,74,49,29.75,29.69,9,2,14,0.02
2013-5-26,61,53,50,52,47,41,90,79,56,29.77,29.69,8,1,13,0.06
2013-5-27,57,52,46,48,44,39,87,74,66,29.81,29.76,9,2,14,0.02
2013-5-28,69,57,46,56,49,43,89,76,56,29.81,29.68,10,2,20,0.01
2013-5-29,74,61,49,58,52,46,92,75,53,29.69,29.55,10,2,15,0.00
2013-5-30,64,59,53,61,56,49,95,88,79,29.54,29.44,8,3,16,0.39
2013-5-31,63,54,48,54,50,46,93,86,67,29.60,29.52,9,2,18,0.19
2013-6-1,66,55,42,56,50,41,97,84,61,29.70,29.60,8,1,12,0.02
2013-6-2,67,58,49,55,51,47,95,78,51,29.84,29.68,7,1,13,0.00
2013-6-3,62,56,52,54,52,48,91,84,73,29.89,29.83,11,4,22,0.00
2013-6-4,66,60,52,60,57,49,94,88,74,29.92,29.83,8,1,16,0.18
2013-6-5,68,60,54,61,57,52,96,88,72,30.02,29.91,5,0,9,0.02
2013-6-6,70,61,53,63,58,51,96,89,76,30.06,30.00,6,0,9,0.14
2013-6-7,78,66,55,62,58,54,97,78,50,30.03,29.94,9,1,14,0.00
2013-6-8,79,66,56,62,59,53,95,78,47,29.98,29.86,12,1,21,0.14
2013-6-9,81,70,55,66,59,54,97,71,49,29.88,29.75,7,1,12,0.00
2013-6-10,80,69,60,64,60,57,94,75,48,29.78,29.65,19,2,35,0.27
2013-6-11,73,62,56,63,58,52,97,86,61,29.86,29.72,8,1,16,0.02
2013-6-12,75,64,52,59,54,50,94,72,52,30.06,29.86,9,2,15,0.00
2013-6-13,79,67,52,58,54,49,95,66,40,30.08,29.98,8,1,13,0.00
2013-6-14,82,70,54,62,58,52,96,68,40,30.01,29.94,7,1,12,0.00
2013-6-15,84,72,58,66,61,56,95,71,42,29.98,29.91,6,1,12,0.00
2013-6-16,84,73,61,68,63,59,95,73,51,30.01,29.95,5,1,8,0.00
2013-6-17,89,77,61,70,65,59,96,71,46,30.02,29.96,6,0,8,0.00
2013-6-18,92,79,64,72,66,62,95,67,38,30.02,29.94,8,1,12,0.00
2013-6-19,93,81,65,71,67,62,92,65,37,29.99,29.92,9,2,17,0.00
2013-6-20,91,81,70,74,70,65,88,69,52,29.98,29.87,10,2,17,0.03
2013-6-21,92,83,74,73,68,62,83,63,37,29.90,29.85,7,2,13,0.00
2013-6-22,90,79,66,75,68,61,94,71,39,29.90,29.80,10,1,16,0.09
2013-6-23,81,73,67,72,66,63,95,81,65,29.87,29.79,7,1,12,0.15
2013-6-24,78,66,58,66,61,56,95,84,64,29.82,29.74,9,2,15,0.17
2013-6-25,61,58,55,58,55,51,94,90,84,29.98,29.77,10,3,17,0.03
2013-6-26,66,58,53,54,51,49,89,78,59,30.17,29.98,12,5,22,0.00
2013-6-27,68,58,52,58,53,48,92,82,62,30.17,30.09,7,2,12,0.00
2013-6-28,72,61,52,58,54,50,95,82,53,30.09,30.00,8,1,12,0.06
2013-6-29,75,63,55,58,54,49,96,75,42,30.02,29.92,8,2,14,0.00
2013-6-30,74,63,53,58,53,49,95,72,47,30.03,29.95,13,3,25,0.00
2013-7-1,74,62,48,52,48,44,92,64,43,30.08,30.03,8,2,14,0.00
2013-7-2,79,66,49,56,51,46,94,63,36,30.10,30.01,6,1,12,0.00
2013-7-3,82,69,51,58,54,48,92,61,37,30.03,29.92,8,1,12,0.00
2013-7-4,86,72,53,61,54,44,93,60,24,30.04,29.97,8,1,15,0.00
2013-7-5,82,72,58,64,60,55,92,68,48,30.13,30.04,8,2,15,0.00
2013-7-6,84,73,62,68,63,59,93,71,50,30.20,30.12,12,2,20,0.01
2013-7-7,85,75,63,64,61,59,89,64,42,30.22,30.15,9,2,14,0.00
2013-7-8,83,74,63,61,58,54,83,59,38,30.24,30.16,8,2,17,0.00
2013-7-9,84,73,60,59,56,54,80,58,40,30.20,30.00,7,2,12,0.00
2013-7-10,86,73,56,62,57,52,91,61,37,30.01,29.80,7,1,12,0.00
2013-7-11,76,68,58,62,57,50,91,70,48,29.93,29.78,11,2,21,0.00
2013-7-12,75,65,55,55,52,50,85,65,46,30.02,29.93,10,3,17,0.00
2013-7-13,76,66,53,56,53,50,93,66,45,30.03,29.98,10,2,17,0.00
2013-7-14,80,69,56,56,52,47,88,59,33,30.03,29.96,11,2,20,0.00
2013-7-15,78,66,56,59,53,48,89,65,38,30.08,29.95,12,2,21,0.00
2013-7-16,80,67,52,54,51,48,88,60,36,30.16,30.07,8,1,13,0.00
2013-7-17,84,70,54,60,55,51,90,62,36,30.17,30.08,6,1,9,0.00
2013-7-18,84,73,57,63,58,54,91,64,41,30.13,30.05,6,1,10,0.00
2013-7-19,86,74,65,66,61,57,82,66,39,30.07,29.92,5,1,8,0.00
2013-7-20,85,72,57,62,57,52,91,63,37,30.03,29.92,10,2,14,0.00
2013-7-21,81,71,59,54,51,48,75,51,34,30.09,30.02,9,2,16,0.00
2013-7-22,85,72,54,57,53,49,87,55,33,30.09,29.91,7,1,13,0.00
2013-7-23,88,74,56,60,54,50,88,54,28,29.91,29.83,9,2,18,0.00
2013-7-24,88,75,62,56,50,41,74,46,19,29.94,29.86,9,2,17,0.00
2013-7-25,81,70,57,62,55,48,82,62,47,29.98,29.91,5,0,8,0.00
2013-7-26,88,74,58,63,59,55,92,62,36,29.99,29.90,7,1,12,0.00
2013-7-27,92,78,62,66,61,57,86,61,38,29.93,29.86,7,1,12,0.00
2013-7-28,96,82,66,69,62,57,89,55,28,29.94,29.88,10,2,17,0.00
2013-7-29,97,85,69,67,62,52,73,49,31,29.93,29.76,10,2,20,0.00
2013-7-30,84,74,68,66,59,52,86,60,34,29.99,29.80,16,6,26,0.05
2013-7-31,84,74,62,60,56,54,83,56,36,30.02,29.95,9,2,17,0.00
2013-8-1,86,74,62,62,59,56,85,61,37,30.06,29.98,6,1,12,0.00
2013-8-2,91,77,61,63,59,56,88,58,32,30.06,29.95,14,1,20,0.00
2013-8-3,95,79,61,63,59,52,87,55,26,29.98,29.91,8,1,12,0.00
2013-8-4,92,80,67,62,59,53,77,51,33,30.07,29.96,7,1,12,0.00
2013-8-5,92,80,67,65,61,56,81,55,33,30.10,29.96,9,2,14,0.00
2013-8-6,95,80,63,66,60,57,86,55,29,30.01,29.90,5,1,9,0.00
2013-8-7,96,83,66,65,60,56,81,49,27,29.95,29.88,7,1,12,0.00
2013-8-8,98,85,66,65,59,56,78,46,25,29.96,29.88,8,2,13,0.00
2013-8-9,97,84,67,66,60,56,79,48,26,29.92,29.75,6,1,13,0.00
2013-8-10,78,71,67,66,62,57,84,73,58,29.94,29.82,14,5,24,0.02
2013-8-11,84,72,62,60,52,44,74,53,25,29.98,29.91,8,2,15,0.00
2013-8-12,86,71,56,59,53,49,85,57,30,30.03,29.92,8,1,15,0.00
2013-8-13,87,72,58,59,56,52,83,59,35,30.01,29.90,10,2,20,0.02
2013-8-14,74,67,60,62,55,47,92,70,40,30.13,29.98,9,1,16,0.03
2013-8-15,76,64,51,57,52,47,95,68,37,30.19,30.12,6,0,9,0.01
2013-8-16,80,66,48,52,48,44,91,58,28,30.19,30.07,7,1,12,0.00
2013-8-17,85,65,50,54,48,45,88,61,28,30.09,30.00,5,1,12,0.00
2013-8-18,64,57,52,54,48,46,84,74,60,30.04,30.01,0,0,2,0.00
2013-8-19,90,82,78,52,50,49,38,33,26,29.90,29.87,6,3,12,0.00
2013-8-20,78,71,66,63,60,50,82,70,38,30.09,29.89,10,4,17,0.00
2013-8-21,76,68,61,65,61,58,94,78,61,30.14,30.08,8,1,12,0.38
2013-8-22,78,68,57,61,57,51,93,70,45,30.11,30.00,11,1,15,0.00
2013-8-23,80,69,54,58,53,50,90,58,39,30.05,29.95,9,1,15,0.00
2013-8-24,78,69,57,57,53,50,82,59,43,29.99,29.87,9,1,15,0.00
2013-8-25,78,68,61,61,55,52,87,64,41,29.89,29.79,8,1,13,0.02
2013-8-26,70,64,60,64,61,58,95,87,75,29.91,29.83,9,1,14,0.69
2013-8-27,72,65,59,61,59,58,96,83,63,29.94,29.86,4,1,8,0.01
2013-8-28,71,64,59,62,59,56,95,85,65,29.90,29.83,8,1,14,0.43
2013-8-29,76,65,58,61,58,53,96,80,48,30.08,29.90,8,1,14,0.30
2013-8-30,74,64,56,58,56,50,94,76,46,30.10,30.04,5,1,9,0.00
2013-8-31,77,64,50,59,53,48,96,72,39,30.09,30.02,7,1,12,0.00
2013-9-1,74,64,54,60,55,49,92,73,54,30.14,30.01,12,2,21,0.00
2013-9-2,70,59,46,51,47,44,95,67,44,30.19,30.08,9,2,16,0.00
2013-9-3,73,65,55,60,53,47,80,66,50,30.21,30.01,13,5,26,0.00
2013-9-4,74,60,45,53,47,42,95,68,35,30.26,30.16,7,1,12,0.00
2013-9-5,75,61,48,54,50,45,92,69,42,30.17,30.02,9,1,16,0.00
2013-9-6,74,63,48,53,49,44,92,63,42,30.06,29.98,9,1,15,0.00
2013-9-7,77,61,46,53,48,43,92,65,35,30.15,30.05,4,0,9,0.00
2013-9-8,78,63,47,54,49,44,92,63,35,30.21,30.10,6,1,9,0.00
2013-9-9,64,60,54,57,53,47,93,79,57,30.11,30.01,6,0,10,0.17
2013-9-10,69,60,51,61,56,50,96,88,69,30.09,29.95,6,1,9,0.01
2013-9-11,64,58,49,58,54,47,96,88,62,29.96,29.89,9,1,17,0.25
2013-9-12,68,58,48,54,50,46,96,78,49,29.95,29.89,6,0,12,0.00
2013-9-13,64,57,53,53,50,48,88,76,59,29.99,29.93,9,2,15,0.00
2013-9-14,58,54,50,55,52,49,95,92,86,29.98,29.86,8,2,15,0.24
2013-9-15,72,59,46,61,54,44,97,84,62,29.93,29.75,8,1,12,0.01
2013-9-16,72,62,51,62,57,49,96,84,64,29.75,29.53,6,0,12,0.00
2013-9-17,63,55,48,60,51,42,94,85,76,29.66,29.41,16,4,30,0.29
2013-9-18,63,54,44,51,46,41,93,76,51,29.66,29.54,11,2,18,0.00
2013-9-19,62,56,52,53,47,41,90,73,49,29.91,29.54,13,4,27,0.00
2013-9-20,63,55,42,50,46,39,94,74,52,30.01,29.90,8,1,14,0.00
2013-9-21,67,58,48,53,51,45,90,78,58,30.23,30.01,11,3,20,0.00
2013-9-22,66,53,40,52,46,38,96,78,49,30.29,30.16,7,1,10,0.00
2013-9-23,67,58,50,56,52,46,91,79,66,30.16,29.92,14,4,25,0.00
2013-9-24,67,61,53,55,52,48,84,73,63,29.93,29.88,10,4,21,0.00
2013-9-25,67,58,50,53,50,46,92,74,57,29.99,29.87,7,2,12,0.00
2013-9-26,72,58,50,61,52,46,92,82,57,29.93,29.78,11,1,21,0.03
2013-9-27,59,50,41,49,44,39,96,82,59,30.07,29.93,6,1,12,0.00
2013-9-28,62,48,36,48,40,34,96,78,46,30.03,29.94,5,0,9,0.00
2013-9-29,61,51,39,44,41,36,94,69,50,30.00,29.91,8,2,14,0.00
2013-9-30,61,53,47,44,40,38,76,63,49,29.91,29.78,14,3,22,0.00
2013-10-1,61,52,44,44,41,38,81,65,51,29.94,29.78,8,1,12,0.00
2013-10-2,54,49,36,40,35,28,76,59,38,30.33,29.94,10,2,16,0.00
2013-10-3,53,42,31,31,28,24,87,60,37,30.51,30.33,9,2,15,0.00
2013-10-4,53,38,25,32,26,22,91,66,37,30.52,30.42,6,1,9,0.00
2013-10-5,57,41,25,32,28,22,92,65,35,30.43,30.23,8,1,13,0.00
2013-10-6,62,46,33,38,34,29,89,66,36,30.30,30.23,4,0,9,0.00
2013-10-7,65,53,43,44,41,38,86,67,40,30.36,30.29,5,0,8,0.00
2013-10-8,68,51,37,46,39,34,94,68,34,30.35,30.24,7,1,10,0.00
2013-10-9,61,52,42,48,44,38,86,73,57,30.24,30.01,6,1,10,0.00
2013-10-10,56,54,52,53,51,48,94,90,82,30.01,29.88,8,1,15,0.03
2013-10-11,70,61,53,58,54,52,96,81,62,30.06,29.92,11,5,23,0.00
2013-10-12,74,62,53,60,56,51,95,82,60,30.13,30.04,11,1,16,0.09
2013-10-13,70,59,46,61,54,43,97,84,57,30.17,30.06,8,1,12,0.12
2013-10-14,65,52,40,54,47,39,96,84,65,30.18,30.07,6,0,8,0.00
2013-10-15,66,55,44,58,51,42,96,86,65,30.07,29.79,9,1,14,0.01
2013-10-16,50,48,42,49,46,40,95,94,92,29.78,29.59,11,3,20,0.47
2013-10-17,60,52,44,50,46,41,94,81,55,29.95,29.75,12,3,23,0.00
2013-10-18,60,52,44,49,46,40,95,80,62,30.10,29.91,13,3,22,0.06
2013-10-19,56,48,36,46,41,34,95,78,62,30.28,30.11,9,2,14,0.00
2013-10-20,64,55,42,54,47,39,92,76,59,30.25,30.09,9,1,16,0.00
2013-10-21,70,57,49,57,51,47,95,83,61,30.13,30.06,7,0,12,0.00
2013-10-22,64,56,46,58,53,44,97,89,80,30.14,30.08,6,1,12,0.00
2013-10-23,74,66,60,59,57,55,89,74,53,30.08,29.96,15,4,22,0.00
2013-10-24,72,62,53,58,55,50,94,78,60,30.15,30.03,6,1,8,0.00
2013-10-25,73,60,48,60,54,46,96,81,60,30.17,30.09,6,0,9,0.00
2013-10-26,71,57,47,58,52,46,96,83,62,30.12,30.08,7,1,12,0.00
2013-10-27,71,57,43,59,52,42,96,84,63,30.11,29.90,9,1,15,0.00
2013-10-28,70,62,54,60,55,50,92,78,61,30.02,29.88,8,2,14,0.00
2013-10-29,69,59,50,58,53,47,95,80,66,30.05,29.87,8,1,12,0.05
2013-10-30,60,53,44,52,47,40,95,80,60,30.29,30.03,9,2,15,0.07
2013-10-31,60,47,38,45,40,35,93,76,49,30.37,30.28,4,0,7,0.00
2013-11-1,58,51,40,49,45,38,92,80,69,30.29,30.10,4,0,8,0.00
2013-11-2,62,55,46,55,51,44,95,86,73,30.10,29.86,11,2,17,0.00
2013-11-3,64,54,49,58,51,43,97,90,78,29.87,29.59,15,4,31,0.17
2013-11-4,53,49,42,50,44,39,94,85,72,29.90,29.50,11,2,15,0.05
2013-11-5,53,50,45,52,48,41,97,95,87,29.50,29.42,10,2,16,0.46
2013-11-6,55,46,35,45,40,33,95,81,63,29.83,29.46,15,3,26,0.01
2013-11-7,57,51,45,51,46,40,94,84,72,30.02,29.83,10,2,17,0.02
2013-11-8,57,49,41,52,46,39,97,91,83,30.02,29.94,5,0,8,0.00
2013-11-9,59,53,49,53,50,48,95,88,78,29.94,29.83,10,3,15,0.13
2013-11-10,56,49,45,48,46,44,96,87,70,29.82,29.72,6,1,12,0.06
2013-11-11,52,50,47,46,44,40,95,79,67,30.26,29.77,9,2,13,0.02
2013-11-12,56,50,44,46,42,39,89,75,63,30.32,30.26,5,1,9,0.00
2013-11-13,50,47,44,48,44,41,93,90,86,30.27,30.24,9,2,15,0.00
2013-11-14,46,45,42,43,41,39,95,87,79,30.27,30.13,4,0,6,0.00
2013-11-15,50,46,44,43,40,36,89,79,72,30.37,30.14,5,0,10,0.00
2013-11-16,57,46,36,46,41,34,95,85,64,30.39,30.31,3,0,4,0.00
2013-11-17,51,42,35,46,39,34,97,91,79,30.31,30.23,2,0,4,0.01
2013-11-18,43,42,40,42,40,39,97,96,94,30.24,30.06,8,2,12,0.00
2013-11-19,45,43,40,42,41,38,97,93,87,30.06,29.73,12,4,20,0.00
2013-11-20,51,47,42,48,44,40,96,90,82,29.73,29.54,8,2,15,0.18
2013-11-21,47,43,37,46,42,36,97,96,94,29.68,29.58,12,2,18,0.09
2013-11-22,51,48,46,49,46,45,98,96,92,29.75,29.62,6,1,9,0.00
2013-11-23,54,48,43,49,45,41,96,89,82,29.77,29.70,6,1,12,0.01
2013-11-24,47,46,43,45,44,42,97,95,88,29.71,29.66,7,1,12,0.42
2013-11-25,43,37,35,42,33,28,97,83,69,30.05,29.66,13,4,20,0.13
2013-11-26,39,34,30,31,28,25,88,79,65,30.23,30.05,5,1,9,0.00
2013-11-27,40,32,23,26,23,20,89,73,50,30.44,30.23,6,1,10,0.00
2013-11-28,39,30,19,32,24,17,94,81,52,30.43,30.22,11,3,17,0.00
2013-11-29,43,38,34,35,33,31,88,83,73,30.23,30.04,12,4,20,0.00
2013-11-30,37,35,35,32,31,30,86,83,80,30.04,29.99,7,2,14,0.00
2013-12-5,35,34,32,31,30,30,91,88,85,30.03,29.86,7,4,23,0.00
2013-12-6,43,38,33,36,29,25,92,72,56,29.88,29.72,21,8,35,0.04
2013-12-7,38,35,32,30,27,24,86,73,58,30.19,29.87,17,8,34,0.00
2013-12-8,41,38,34,36,34,29,90,82,78,30.33,30.18,10,2,17,0.00
2013-12-9,46,44,39,41,38,33,87,79,67,30.29,30.11,18,8,31,0.00
2013-12-10,44,35,25,40,29,20,91,80,67,30.75,30.25,9,1,13,0.00
2013-12-11,37,30,24,27,24,20,89,78,60,30.74,30.59,6,1,9,0.00
2013-12-12,36,34,32,31,30,27,93,86,78,30.59,30.42,5,0,7,0.00
2013-12-13,33,32,30,31,30,28,94,93,92,30.42,30.33,4,0,6,0.00
2013-12-14,32,31,30,30,29,28,95,93,91,30.47,30.34,5,0,7,0.00
2013-12-15,34,33,31,33,31,30,96,94,92,30.58,30.46,7,0,10,0.00
2013-12-16,35,34,32,34,33,31,97,96,96,30.68,30.57,4,0,6,0.00
2013-12-17,33,32,31,32,31,30,97,96,94,30.67,30.53,6,2,10,0.00
2013-12-18,32,30,28,30,29,27,95,95,94,30.53,30.33,6,2,9,0.00
2013-12-19,30,29,27,29,27,26,96,95,94,30.33,30.18,7,2,12,0.00
2013-12-20,31,29,28,30,29,28,97,97,96,30.49,30.24,6,2,9,0.00
2013-12-21,42,33,27,36,31,26,98,92,79,30.64,30.48,5,0,8,0.01
2013-12-22,34,32,31,33,31,30,97,96,95,30.59,30.34,6,1,10,0.00
2013-12-23,39,36,34,38,35,32,97,95,94,30.34,30.29,5,0,8,0.00
2013-12-24,40,37,32,39,36,31,98,96,91,30.29,30.01,9,1,10,0.01
2013-12-25,49,40,32,38,34,30,97,79,61,30.01,29.76,11,3,16,0.00
2013-12-26,46,42,37,43,38,33,91,87,78,29.77,29.59,9,3,17,0.06
2013-12-27,53,45,36,45,41,34,92,86,72,30.00,29.68,8,1,12,0.02
2013-12-28,45,40,34,43,38,32,97,94,89,30.05,29.97,8,1,13,0.01
2013-12-29,45,40,35,42,38,34,97,94,88,30.22,29.96,6,1,9,0.01
2013-12-30,45,42,36,43,39,34,96,91,86,30.36,30.21,4,0,6,0.02
2013-12-31,38,37,34,38,35,33,97,95,93,30.32,30.22,7,1,12,0.00
2014-1-1,39,37,35,36,35,33,97,92,89,30.22,30.13,8,2,12,0.00
2014-1-2,41,38,34,38,36,32,95,90,85,30.13,29.96,7,2,12,0.00